createdAt,value
2018-06-24T00:00:27.722Z,1018.28
2018-06-24T00:01:27.702Z,1018.22
2018-06-24T00:02:27.663Z,1018.24
2018-06-24T00:03:27.638Z,1018.29
2018-06-24T00:04:27.613Z,1018.20
2018-06-24T00:05:27.588Z,1018.18
2018-06-24T00:06:27.563Z,1018.21
2018-06-24T00:07:27.536Z,1018.23
2018-06-24T00:08:27.507Z,1018.26
2018-06-24T00:09:27.484Z,1018.17
2018-06-24T00:10:27.453Z,1018.09
2018-06-24T00:11:27.428Z,1018.21
2018-06-24T00:12:27.402Z,1018.07
2018-06-24T00:13:27.376Z,1018.18
2018-06-24T00:14:27.349Z,1018.13
2018-06-24T00:15:27.363Z,1018.19
2018-06-24T00:16:27.300Z,1018.14
2018-06-24T00:17:27.273Z,1018.05
2018-06-24T00:18:27.247Z,1018.19
2018-06-24T00:19:27.220Z,1018.13
2018-06-24T00:20:27.191Z,1018.17
2018-06-24T00:21:27.167Z,1018.16
2018-06-24T00:22:27.140Z,1018.20
2018-06-24T00:23:27.114Z,1018.16
2018-06-24T00:24:27.090Z,1018.07
2018-06-24T00:25:27.067Z,1018.07
2018-06-24T00:26:27.036Z,1018.12
2018-06-24T00:27:27.011Z,1018.08
2018-06-24T00:28:26.986Z,1018.09
2018-06-24T00:29:26.960Z,1018.06
2018-06-24T00:30:26.935Z,1018.07
2018-06-24T00:31:26.905Z,1018.03
2018-06-24T00:32:26.879Z,1018.05
2018-06-24T00:33:26.852Z,1018.00
2018-06-24T00:34:26.826Z,1018.01
2018-06-24T00:35:26.800Z,1018.06
2018-06-24T00:36:26.776Z,1018.02
2018-06-24T00:37:26.755Z,1018.01
2018-06-24T00:38:26.724Z,1018.04
2018-06-24T00:39:26.696Z,1017.99
2018-06-24T00:40:26.678Z,1018.02
2018-06-24T00:41:26.656Z,1018.05
2018-06-24T00:42:26.620Z,1018.04
2018-06-24T00:43:26.592Z,1018.05
2018-06-24T00:44:26.568Z,1017.97
2018-06-24T00:45:26.540Z,1017.99
2018-06-24T00:46:26.521Z,1017.98
2018-06-24T00:47:26.486Z,1017.93
2018-06-24T00:48:26.463Z,1017.95
2018-06-24T00:49:26.436Z,1017.93
2018-06-24T00:50:26.416Z,1017.97
2018-06-24T00:51:26.385Z,1017.95
2018-06-24T00:52:26.356Z,1018.01
2018-06-24T00:53:26.331Z,1017.96
2018-06-24T00:54:26.304Z,1017.95
2018-06-24T00:55:26.278Z,1017.97
2018-06-24T00:56:26.255Z,1017.90
2018-06-24T00:57:26.227Z,1017.98
2018-06-24T00:58:26.204Z,1017.88
2018-06-24T00:59:26.175Z,1017.93
2018-06-24T01:00:26.168Z,1017.87
2018-06-24T01:01:26.121Z,1017.87
2018-06-24T01:02:26.095Z,1017.91
2018-06-24T01:03:26.069Z,1017.89
2018-06-24T01:04:26.044Z,1017.89
2018-06-24T01:05:26.023Z,1017.94
2018-06-24T01:06:25.993Z,1017.95
2018-06-24T01:07:25.966Z,1017.92
2018-06-24T01:08:25.938Z,1018.01
2018-06-24T01:09:25.914Z,1018.02
2018-06-24T01:10:25.887Z,1017.94
2018-06-24T01:11:25.860Z,1017.93
2018-06-24T01:12:25.835Z,1017.93
2018-06-24T01:13:25.810Z,1017.94
2018-06-24T01:14:25.783Z,1017.92
2018-06-24T01:15:25.757Z,1017.83
2018-06-24T01:16:25.731Z,1017.89
2018-06-24T01:17:25.705Z,1017.92
2018-06-24T01:18:25.677Z,1017.89
2018-06-24T01:19:25.655Z,1017.90
2018-06-24T01:20:25.626Z,1017.88
2018-06-24T01:21:25.598Z,1017.93
2018-06-24T01:22:25.571Z,1017.86
2018-06-24T01:23:25.552Z,1017.68
2018-06-24T01:24:25.522Z,1017.86
2018-06-24T01:25:25.497Z,1017.87
2018-06-24T01:26:25.472Z,1017.87
2018-06-24T01:27:25.445Z,1017.91
2018-06-24T01:28:25.414Z,1017.85
2018-06-24T01:29:25.389Z,1017.82
2018-06-24T01:30:25.362Z,1017.82
2018-06-24T01:31:25.336Z,1017.81
2018-06-24T01:32:25.315Z,1017.80
2018-06-24T01:33:25.286Z,1017.84
2018-06-24T01:34:25.257Z,1017.78
2018-06-24T01:35:25.232Z,1017.77
2018-06-24T01:36:25.209Z,1017.75
2018-06-24T01:37:25.187Z,1017.73
2018-06-24T01:38:25.155Z,1017.64
2018-06-24T01:39:25.132Z,1017.71
2018-06-24T01:40:25.101Z,1017.65
2018-06-24T01:41:25.081Z,1017.62
2018-06-24T01:42:25.051Z,1017.67
2018-06-24T01:43:25.022Z,1017.67
2018-06-24T01:44:25.019Z,1017.62
2018-06-24T01:45:24.973Z,1017.62
2018-06-24T01:46:24.945Z,1017.68
2018-06-24T01:47:24.949Z,1017.67
2018-06-24T01:48:24.893Z,1017.69
2018-06-24T01:49:24.867Z,1017.63
2018-06-24T01:50:24.842Z,1017.63
2018-06-24T01:51:24.814Z,1017.61
2018-06-24T01:52:24.786Z,1017.67
2018-06-24T01:53:24.762Z,1017.70
2018-06-24T01:54:24.734Z,1017.66
2018-06-24T01:55:24.712Z,1017.66
2018-06-24T01:56:24.684Z,1017.69
2018-06-24T01:57:24.658Z,1017.65
2018-06-24T01:58:24.647Z,1017.61
2018-06-24T01:59:24.607Z,1017.76
2018-06-24T02:00:24.582Z,1017.70
2018-06-24T02:01:24.550Z,1017.73
2018-06-24T02:02:24.527Z,1017.67
2018-06-24T02:03:24.497Z,1017.70
2018-06-24T02:04:24.476Z,1017.65
2018-06-24T02:05:24.446Z,1017.61
2018-06-24T02:06:24.421Z,1017.61
2018-06-24T02:07:24.392Z,1017.66
2018-06-24T02:08:24.366Z,1017.61
2018-06-24T02:09:24.338Z,1017.61
2018-06-24T02:10:24.311Z,1017.65
2018-06-24T02:11:24.287Z,1017.60
2018-06-24T02:12:24.264Z,1017.60
2018-06-24T02:13:24.236Z,1017.63
2018-06-24T02:14:24.209Z,1017.63
2018-06-24T02:15:24.182Z,1017.55
2018-06-24T02:16:24.156Z,1017.55
2018-06-24T02:17:24.130Z,1017.53
2018-06-24T02:18:24.106Z,1017.58
2018-06-24T02:19:24.073Z,1017.54
2018-06-24T02:20:24.048Z,1017.51
2018-06-24T02:21:24.021Z,1017.58
2018-06-24T02:22:23.994Z,1017.48
2018-06-24T02:23:23.967Z,1017.49
2018-06-24T02:24:23.943Z,1017.49
2018-06-24T02:25:23.915Z,1017.49
2018-06-24T02:26:23.889Z,1017.45
2018-06-24T02:27:23.863Z,1017.49
2018-06-24T02:28:23.839Z,1017.45
2018-06-24T02:29:23.808Z,1017.46
2018-06-24T02:30:23.786Z,1017.45
2018-06-24T02:31:23.758Z,1017.41
2018-06-24T02:32:23.731Z,1017.41
2018-06-24T02:33:23.705Z,1017.38
2018-06-24T02:34:23.681Z,1017.43
2018-06-24T02:35:23.653Z,1017.40
2018-06-24T02:36:23.624Z,1017.36
2018-06-24T02:37:23.600Z,1017.41
2018-06-24T02:38:23.571Z,1017.34
2018-06-24T02:39:23.549Z,1017.35
2018-06-24T02:40:23.517Z,1017.35
2018-06-24T02:41:23.501Z,1017.38
2018-06-24T02:42:23.475Z,1017.28
2018-06-24T02:43:23.436Z,1017.27
2018-06-24T02:44:23.412Z,1017.31
2018-06-24T02:45:23.386Z,1017.25
2018-06-24T02:46:23.374Z,1017.27
2018-06-24T02:47:23.333Z,1017.25
2018-06-24T02:48:23.304Z,1017.26
2018-06-24T02:49:23.279Z,1017.27
2018-06-24T02:50:23.258Z,1017.26
2018-06-24T02:51:23.229Z,1017.22
2018-06-24T02:52:23.198Z,1017.27
2018-06-24T02:53:23.172Z,1017.25
2018-06-24T02:54:23.144Z,1017.26
2018-06-24T02:55:23.118Z,1017.28
2018-06-24T02:56:23.096Z,1017.27
2018-06-24T02:57:23.066Z,1017.29
2018-06-24T02:58:23.040Z,1017.30
2018-06-24T02:59:23.014Z,1017.24
2018-06-24T03:00:22.985Z,1017.28
2018-06-24T03:01:22.963Z,1017.30
2018-06-24T03:02:22.936Z,1017.32
2018-06-24T03:03:22.905Z,1017.30
2018-06-24T03:04:22.885Z,1017.25
2018-06-24T03:05:22.860Z,1017.32
2018-06-24T03:06:22.827Z,1017.34
2018-06-24T03:07:22.804Z,1017.31
2018-06-24T03:08:22.778Z,1017.29
2018-06-24T03:09:22.746Z,1017.28
2018-06-24T03:10:22.720Z,1017.28
2018-06-24T03:11:22.695Z,1017.26
2018-06-24T03:12:22.668Z,1017.28
2018-06-24T03:13:22.643Z,1017.32
2018-06-24T03:14:22.616Z,1017.31
2018-06-24T03:15:22.590Z,1017.37
2018-06-24T03:16:22.562Z,1017.33
2018-06-24T03:17:22.536Z,1017.29
2018-06-24T03:18:22.508Z,1017.30
2018-06-24T03:19:22.482Z,1017.27
2018-06-24T03:20:22.460Z,1017.29
2018-06-24T03:21:22.442Z,1017.31
2018-06-24T03:22:22.405Z,1017.23
2018-06-24T03:23:22.377Z,1017.34
2018-06-24T03:24:22.352Z,1017.33
2018-06-24T03:25:22.327Z,1017.31
2018-06-24T03:26:22.303Z,1017.35
2018-06-24T03:27:22.272Z,1017.33
2018-06-24T03:28:22.248Z,1017.34
2018-06-24T03:29:22.229Z,1017.33
2018-06-24T03:30:22.191Z,1017.34
2018-06-24T03:31:22.165Z,1017.36
2018-06-24T03:32:22.140Z,1017.36
2018-06-24T03:33:22.113Z,1017.32
2018-06-24T03:34:22.086Z,1017.32
2018-06-24T03:35:22.061Z,1017.33
2018-06-24T03:36:22.032Z,1017.32
2018-06-24T03:37:22.008Z,1017.35
2018-06-24T03:38:21.979Z,1017.29
2018-06-24T03:39:21.953Z,1017.35
2018-06-24T03:40:21.927Z,1017.32
2018-06-24T03:41:21.900Z,1017.34
2018-06-24T03:42:21.873Z,1017.36
2018-06-24T03:43:21.847Z,1017.31
2018-06-24T03:44:21.831Z,1017.37
2018-06-24T03:45:21.801Z,1017.34
2018-06-24T03:46:21.775Z,1017.31
2018-06-24T03:47:21.746Z,1017.34
2018-06-24T03:48:21.715Z,1017.33
2018-06-24T03:49:21.691Z,1017.28
2018-06-24T03:50:21.663Z,1017.35
2018-06-24T03:51:21.638Z,1017.31
2018-06-24T03:52:21.617Z,1017.34
2018-06-24T03:53:21.586Z,1017.24
2018-06-24T03:54:21.559Z,1017.31
2018-06-24T03:55:21.532Z,1017.31
2018-06-24T03:56:21.544Z,1017.22
2018-06-24T03:57:21.486Z,1017.27
2018-06-24T03:58:21.454Z,1017.27
2018-06-24T03:59:21.427Z,1017.31
2018-06-24T04:00:21.400Z,1017.31
2018-06-24T04:01:21.373Z,1017.28
2018-06-24T04:02:21.345Z,1017.37
2018-06-24T04:03:21.320Z,1017.33
2018-06-24T04:04:21.300Z,1017.31
2018-06-24T04:05:21.269Z,1017.34
2018-06-24T04:06:21.242Z,1017.37
2018-06-24T04:07:21.216Z,1017.40
2018-06-24T04:08:21.187Z,1017.35
2018-06-24T04:09:21.166Z,1017.35
2018-06-24T04:10:21.134Z,1017.31
2018-06-24T04:11:21.109Z,1017.31
2018-06-24T04:12:21.083Z,1017.33
2018-06-24T04:13:21.056Z,1017.38
2018-06-24T04:14:21.029Z,1017.45
2018-06-24T04:15:21.003Z,1017.41
2018-06-24T04:16:20.982Z,1017.46
2018-06-24T04:17:20.955Z,1017.43
2018-06-24T04:18:20.995Z,1017.41
2018-06-24T04:19:20.900Z,1017.37
2018-06-24T04:20:20.872Z,1017.40
2018-06-24T04:21:20.846Z,1017.36
2018-06-24T04:22:20.826Z,1017.38
2018-06-24T04:23:20.793Z,1017.34
2018-06-24T04:24:20.769Z,1017.38
2018-06-24T04:25:20.742Z,1017.37
2018-06-24T04:26:20.714Z,1017.39
2018-06-24T04:27:20.692Z,1017.39
2018-06-24T04:28:20.663Z,1017.39
2018-06-24T04:29:20.637Z,1017.40
2018-06-24T04:30:20.613Z,1017.41
2018-06-24T04:31:20.585Z,1017.50
2018-06-24T04:32:20.565Z,1017.44
2018-06-24T04:33:20.531Z,1017.42
2018-06-24T04:34:20.503Z,1017.42
2018-06-24T04:35:20.483Z,1017.40
2018-06-24T04:36:20.465Z,1017.44
2018-06-24T04:37:20.429Z,1017.42
2018-06-24T04:38:20.404Z,1017.42
2018-06-24T04:39:20.375Z,1017.45
2018-06-24T04:40:20.351Z,1017.44
2018-06-24T04:41:20.324Z,1017.46
2018-06-24T04:42:20.297Z,1017.43
2018-06-24T04:43:20.269Z,1017.48
2018-06-24T04:44:20.243Z,1017.44
2018-06-24T04:45:20.217Z,1017.46
2018-06-24T04:46:20.196Z,1017.49
2018-06-24T04:47:20.164Z,1017.43
2018-06-24T04:48:20.144Z,1017.45
2018-06-24T04:49:20.113Z,1017.45
2018-06-24T04:50:20.087Z,1017.46
2018-06-24T04:51:20.062Z,1017.45
2018-06-24T04:52:20.037Z,1017.49
2018-06-24T04:53:20.008Z,1017.44
2018-06-24T04:54:19.982Z,1017.46
2018-06-24T04:55:19.957Z,1017.42
2018-06-24T04:56:19.933Z,1017.47
2018-06-24T04:57:19.908Z,1017.51
2018-06-24T04:58:19.877Z,1017.53
2018-06-24T04:59:19.852Z,1017.51
2018-06-24T05:00:19.829Z,1017.56
2018-06-24T05:01:19.800Z,1017.53
2018-06-24T05:02:19.776Z,1017.54
2018-06-24T05:03:19.745Z,1017.55
2018-06-24T05:04:19.722Z,1017.55
2018-06-24T05:05:19.694Z,1017.48
2018-06-24T05:06:19.667Z,1017.54
2018-06-24T05:07:19.641Z,1017.49
2018-06-24T05:08:19.619Z,1017.50
2018-06-24T05:09:19.593Z,1017.49
2018-06-24T05:10:19.566Z,1017.51
2018-06-24T05:11:19.537Z,1017.51
2018-06-24T05:12:19.511Z,1017.49
2018-06-24T05:13:19.485Z,1017.52
2018-06-24T05:14:19.458Z,1017.48
2018-06-24T05:15:19.435Z,1017.47
2018-06-24T05:16:19.408Z,1017.48
2018-06-24T05:17:19.382Z,1017.50
2018-06-24T05:18:19.356Z,1017.49
2018-06-24T05:19:19.331Z,1017.49
2018-06-24T05:20:19.303Z,1017.45
2018-06-24T05:21:19.277Z,1017.50
2018-06-24T05:22:19.253Z,1017.49
2018-06-24T05:23:19.225Z,1017.57
2018-06-24T05:24:19.202Z,1017.52
2018-06-24T05:25:19.174Z,1017.48
2018-06-24T05:26:19.149Z,1017.47
2018-06-24T05:27:19.124Z,1017.51
2018-06-24T05:28:19.096Z,1017.49
2018-06-24T05:29:19.071Z,1017.53
2018-06-24T05:30:19.105Z,1017.52
2018-06-24T05:31:19.018Z,1017.52
2018-06-24T05:32:18.999Z,1017.55
2018-06-24T05:33:18.967Z,1017.59
2018-06-24T05:34:18.945Z,1017.58
2018-06-24T05:35:18.917Z,1017.55
2018-06-24T05:36:18.893Z,1017.53
2018-06-24T05:37:18.867Z,1017.57
2018-06-24T05:38:18.842Z,1017.58
2018-06-24T05:39:18.815Z,1017.60
2018-06-24T05:40:18.788Z,1017.51
2018-06-24T05:41:18.762Z,1017.57
2018-06-24T05:42:18.735Z,1017.50
2018-06-24T05:43:18.711Z,1017.52
2018-06-24T05:44:18.687Z,1017.53
2018-06-24T05:45:18.663Z,1017.49
2018-06-24T05:46:18.637Z,1017.57
2018-06-24T05:47:18.611Z,1017.57
2018-06-24T05:48:18.587Z,1017.53
2018-06-24T05:49:18.561Z,1017.56
2018-06-24T05:50:18.535Z,1017.49
2018-06-24T05:51:18.511Z,1017.51
2018-06-24T05:52:18.493Z,1017.59
2018-06-24T05:53:18.459Z,1017.56
2018-06-24T05:54:18.492Z,1017.56
2018-06-24T05:55:18.407Z,1017.58
2018-06-24T05:56:18.385Z,1017.57
2018-06-24T05:57:18.360Z,1017.57
2018-06-24T05:58:18.332Z,1017.51
2018-06-24T05:59:18.309Z,1017.56
2018-06-24T06:00:18.283Z,1017.51
2018-06-24T06:01:18.257Z,1017.52
2018-06-24T06:02:18.237Z,1017.41
2018-06-24T06:03:18.206Z,1017.44
2018-06-24T06:04:18.181Z,1017.44
2018-06-24T06:05:18.157Z,1017.49
2018-06-24T06:06:18.131Z,1017.52
2018-06-24T06:07:18.107Z,1017.53
2018-06-24T06:08:18.082Z,1017.58
2018-06-24T06:09:18.057Z,1017.58
2018-06-24T06:10:18.104Z,1017.52
2018-06-24T06:11:18.006Z,1017.49
2018-06-24T06:12:17.979Z,1017.53
2018-06-24T06:13:17.957Z,1017.54
2018-06-24T06:14:17.926Z,1017.59
2018-06-24T06:15:17.904Z,1017.59
2018-06-24T06:16:17.880Z,1017.65
2018-06-24T06:17:17.856Z,1017.64
2018-06-24T06:18:17.845Z,1017.68
2018-06-24T06:19:17.803Z,1017.65
2018-06-24T06:20:17.780Z,1017.65
2018-06-24T06:21:17.753Z,1017.67
2018-06-24T06:22:17.728Z,1017.66
2018-06-24T06:23:17.704Z,1017.71
2018-06-24T06:24:17.677Z,1017.66
2018-06-24T06:25:17.653Z,1017.72
2018-06-24T06:26:17.627Z,1017.71
2018-06-24T06:27:17.607Z,1017.71
2018-06-24T06:28:17.580Z,1017.74
2018-06-24T06:29:17.560Z,1017.74
2018-06-24T06:30:17.584Z,1017.80
2018-06-24T06:31:17.505Z,1017.74
2018-06-24T06:32:17.480Z,1017.85
2018-06-24T06:33:17.511Z,1017.89
2018-06-24T06:34:17.429Z,1017.85
2018-06-24T06:35:17.404Z,1017.89
2018-06-24T06:36:17.384Z,1017.88
2018-06-24T06:37:17.357Z,1017.93
2018-06-24T06:38:17.332Z,1017.90
2018-06-24T06:39:17.308Z,1017.92
2018-06-24T06:40:17.285Z,1017.86
2018-06-24T06:41:17.263Z,1017.90
2018-06-24T06:42:17.239Z,1017.95
2018-06-24T06:43:17.214Z,1018.00
2018-06-24T06:44:17.192Z,1018.14
2018-06-24T06:45:17.200Z,1018.12
2018-06-24T06:46:17.145Z,1018.19
2018-06-24T06:47:17.119Z,1018.08
2018-06-24T06:48:17.107Z,1018.06
2018-06-24T06:49:17.080Z,1018.26
2018-06-24T06:50:17.058Z,1018.28
2018-06-24T06:51:17.028Z,1018.05
2018-06-24T06:52:17.007Z,1018.10
2018-06-24T06:53:16.983Z,1018.08
2018-06-24T06:54:16.965Z,1018.13
2018-06-24T06:55:16.938Z,1018.10
2018-06-24T06:56:16.915Z,1018.02
2018-06-24T06:57:16.902Z,1018.02
2018-06-24T06:58:16.869Z,1018.00
2018-06-24T06:59:16.851Z,1018.08
2018-06-24T07:00:16.924Z,1018.01
2018-06-24T07:01:16.825Z,1017.90
2018-06-24T07:02:16.781Z,1017.87
2018-06-24T07:03:16.793Z,1017.87
2018-06-24T07:04:16.737Z,1017.88
2018-06-24T07:05:16.715Z,1017.86
2018-06-24T07:06:16.693Z,1017.73
2018-06-24T07:07:16.672Z,1017.82
2018-06-24T07:08:16.649Z,1017.86
2018-06-24T07:09:16.627Z,1017.78
2018-06-24T07:10:16.610Z,1017.79
2018-06-24T07:11:16.605Z,1017.80
2018-06-24T07:12:16.560Z,1017.84
2018-06-24T07:13:16.539Z,1017.84
2018-06-24T07:14:16.515Z,1018.00
2018-06-24T07:15:16.499Z,1017.99
2018-06-24T07:16:16.474Z,1017.96
2018-06-24T07:17:16.445Z,1017.94
2018-06-24T07:18:16.426Z,1017.86
2018-06-24T07:19:16.402Z,1017.92
2018-06-24T07:20:16.377Z,1017.90
2018-06-24T07:21:16.356Z,1017.92
2018-06-24T07:22:16.334Z,1017.87
2018-06-24T07:23:16.311Z,1017.91
2018-06-24T07:24:16.283Z,1017.96
2018-06-24T07:25:16.261Z,1018.03
2018-06-24T07:26:16.235Z,1018.09
2018-06-24T07:27:16.211Z,1018.01
2018-06-24T07:28:16.190Z,1017.99
2018-06-24T07:29:16.166Z,1017.94
2018-06-24T07:30:16.140Z,1017.95
2018-06-24T07:31:16.119Z,1017.96
2018-06-24T07:32:16.091Z,1018.02
2018-06-24T07:33:16.200Z,1018.03
2018-06-24T07:34:16.044Z,1018.02
2018-06-24T07:35:16.018Z,1017.95
2018-06-24T07:36:15.996Z,1017.97
2018-06-24T07:37:15.972Z,1018.02
2018-06-24T07:38:15.945Z,1018.04
2018-06-24T07:39:16.003Z,1017.95
2018-06-24T07:40:15.904Z,1017.95
2018-06-24T07:41:15.877Z,1017.99
2018-06-24T07:42:15.860Z,1018.02
2018-06-24T07:43:15.836Z,1018.10
2018-06-24T07:44:15.799Z,1018.01
2018-06-24T07:45:15.773Z,1018.01
2018-06-24T07:46:15.756Z,1017.95
2018-06-24T07:47:15.726Z,1017.92
2018-06-24T07:48:15.702Z,1017.99
2018-06-24T07:49:15.681Z,1018.03
2018-06-24T07:50:15.683Z,1018.08
2018-06-24T07:51:15.632Z,1018.16
2018-06-24T07:52:15.610Z,1018.15
2018-06-24T07:53:15.581Z,1018.22
2018-06-24T07:54:15.556Z,1018.20
2018-06-24T07:55:15.535Z,1018.19
2018-06-24T07:56:15.509Z,1018.23
2018-06-24T07:57:15.487Z,1018.22
2018-06-24T07:58:15.462Z,1018.23
2018-06-24T07:59:15.439Z,1018.26
2018-06-24T08:00:15.418Z,1018.28
2018-06-24T08:01:15.395Z,1018.24
2018-06-24T08:02:15.374Z,1018.17
2018-06-24T08:03:15.370Z,1018.18
2018-06-24T08:04:15.323Z,1018.04
2018-06-24T08:05:15.363Z,1018.10
2018-06-24T08:06:15.279Z,1018.11
2018-06-24T08:07:15.257Z,1018.06
2018-06-24T08:08:15.237Z,1018.11
2018-06-24T08:09:15.213Z,1018.14
2018-06-24T08:10:15.190Z,1018.18
2018-06-24T08:11:15.199Z,1018.11
2018-06-24T08:12:15.146Z,1018.08
2018-06-24T08:13:15.125Z,1018.04
2018-06-24T08:14:15.102Z,1018.05
2018-06-24T08:15:15.080Z,1018.06
2018-06-24T08:16:15.056Z,1018.06
2018-06-24T08:17:15.034Z,1018.13
2018-06-24T08:18:15.012Z,1017.92
2018-06-24T08:19:14.990Z,1018.06
2018-06-24T08:20:14.969Z,1018.03
2018-06-24T08:21:14.953Z,1018.06
2018-06-24T08:22:14.924Z,1018.12
2018-06-24T08:23:14.901Z,1018.02
2018-06-24T08:24:14.884Z,1018.10
2018-06-24T08:25:14.862Z,1018.03
2018-06-24T08:26:14.832Z,1018.03
2018-06-24T08:27:14.813Z,1017.98
2018-06-24T08:28:14.789Z,1017.98
2018-06-24T08:29:14.769Z,1017.89
2018-06-24T08:30:14.755Z,1017.96
2018-06-24T08:31:14.722Z,1017.98
2018-06-24T08:32:14.700Z,1017.95
2018-06-24T08:33:14.681Z,1017.98
2018-06-24T08:34:14.655Z,1017.92
2018-06-24T08:35:14.638Z,1017.94
2018-06-24T08:36:14.621Z,1017.93
2018-06-24T08:37:14.587Z,1018.00
2018-06-24T08:38:14.563Z,1017.89
2018-06-24T08:39:14.544Z,1018.01
2018-06-24T08:40:14.569Z,1018.00
2018-06-24T08:41:14.503Z,1017.97
2018-06-24T08:42:14.475Z,1018.01
2018-06-24T08:43:14.464Z,1017.94
2018-06-24T08:44:14.433Z,1017.97
2018-06-24T08:45:14.407Z,1017.87
2018-06-24T08:46:14.385Z,1017.88
2018-06-24T08:47:14.395Z,1017.87
2018-06-24T08:48:14.343Z,1017.86
2018-06-24T08:49:14.318Z,1017.91
2018-06-24T08:50:14.293Z,1017.92
2018-06-24T08:51:14.271Z,1017.99
2018-06-24T08:52:14.251Z,1018.12
2018-06-24T08:53:14.227Z,1018.11
2018-06-24T08:54:14.218Z,1018.06
2018-06-24T08:55:14.190Z,1018.12
2018-06-24T08:56:14.159Z,1018.14
2018-06-24T08:57:14.138Z,1018.26
2018-06-24T08:58:14.115Z,1018.27
2018-06-24T08:59:14.090Z,1018.32
2018-06-24T09:00:14.076Z,1018.33
2018-06-24T09:01:14.051Z,1018.29
2018-06-24T09:02:14.026Z,1018.34
2018-06-24T09:03:14.011Z,1018.35
2018-06-24T09:04:13.985Z,1018.37
2018-06-24T09:05:13.964Z,1018.22
2018-06-24T09:06:13.943Z,1018.24
2018-06-24T09:07:14.122Z,1018.30
2018-06-24T09:08:13.903Z,1018.15
2018-06-24T09:09:13.877Z,1018.07
2018-06-24T09:10:13.857Z,1018.08
2018-06-24T09:11:13.838Z,1017.95
2018-06-24T09:12:13.817Z,1017.82
2018-06-24T09:13:13.800Z,1017.69
2018-06-24T09:14:13.829Z,1017.66
2018-06-24T09:15:13.757Z,1017.59
2018-06-24T09:16:13.736Z,1017.57
2018-06-24T09:17:13.714Z,1017.53
2018-06-24T09:18:13.894Z,1017.59
2018-06-24T09:19:13.672Z,1017.56
2018-06-24T09:20:13.648Z,1017.56
2018-06-24T09:21:13.635Z,1017.58
2018-06-24T09:22:13.668Z,1017.58
2018-06-24T09:23:13.582Z,1017.64
2018-06-24T09:24:13.563Z,1017.72
2018-06-24T09:25:13.540Z,1017.67
2018-06-24T09:26:13.518Z,1017.73
2018-06-24T09:27:13.499Z,1017.79
2018-06-24T09:28:13.470Z,1017.86
2018-06-24T09:29:13.448Z,1017.68
2018-06-24T09:30:13.424Z,1017.72
2018-06-24T09:31:13.401Z,1017.67
2018-06-24T09:32:13.382Z,1017.72
2018-06-24T09:33:13.357Z,1017.71
2018-06-24T09:34:13.333Z,1017.78
2018-06-24T09:35:13.310Z,1017.76
2018-06-24T09:36:13.286Z,1017.71
2018-06-24T09:37:13.262Z,1017.80
2018-06-24T09:38:13.238Z,1017.80
2018-06-24T09:39:13.219Z,1017.83
2018-06-24T09:40:13.192Z,1017.85
2018-06-24T09:41:13.171Z,1017.96
2018-06-24T09:42:13.151Z,1018.02
2018-06-24T09:43:13.127Z,1018.09
2018-06-24T09:44:13.103Z,1018.15
2018-06-24T09:45:13.077Z,1018.22
2018-06-24T09:46:13.051Z,1018.15
2018-06-24T09:47:13.030Z,1018.19
2018-06-24T09:48:13.006Z,1018.11
2018-06-24T09:49:12.986Z,1018.17
2018-06-24T09:50:12.968Z,1018.18
2018-06-24T09:51:12.938Z,1018.22
2018-06-24T09:52:12.917Z,1018.13
2018-06-24T09:53:12.895Z,1018.06
2018-06-24T09:54:12.877Z,1018.07
2018-06-24T09:55:12.853Z,1018.15
2018-06-24T09:56:12.827Z,1018.26
2018-06-24T09:57:12.805Z,1018.39
2018-06-24T09:58:12.783Z,1018.34
2018-06-24T09:59:12.765Z,1018.36
2018-06-24T10:00:12.744Z,1018.21
2018-06-24T10:01:12.721Z,1018.13
2018-06-24T10:02:12.848Z,1018.05
2018-06-24T10:03:12.677Z,1018.05
2018-06-24T10:04:12.657Z,1018.01
2018-06-24T10:05:12.636Z,1017.93
2018-06-24T10:06:12.614Z,1017.91
2018-06-24T10:07:12.592Z,1017.93
2018-06-24T10:08:12.570Z,1017.82
2018-06-24T10:09:12.549Z,1017.79
2018-06-24T10:10:12.527Z,1017.81
2018-06-24T10:11:12.507Z,1017.72
2018-06-24T10:12:12.486Z,1017.88
2018-06-24T10:13:12.468Z,1017.89
2018-06-24T10:14:12.446Z,1018.01
2018-06-24T10:15:12.426Z,1018.26
2018-06-24T10:16:12.399Z,1018.26
2018-06-24T10:17:12.385Z,1018.32
2018-06-24T10:18:12.358Z,1018.28
2018-06-24T10:19:12.335Z,1018.19
2018-06-24T10:20:12.313Z,1018.21
2018-06-24T10:21:12.292Z,1018.13
2018-06-24T10:22:12.271Z,1018.13
2018-06-24T10:23:12.250Z,1018.09
2018-06-24T10:24:12.230Z,1018.11
2018-06-24T10:25:12.211Z,1018.00
2018-06-24T10:26:12.187Z,1017.93
2018-06-24T10:27:12.167Z,1018.00
2018-06-24T10:28:12.143Z,1018.04
2018-06-24T10:29:12.131Z,1017.98
2018-06-24T10:30:12.101Z,1017.83
2018-06-24T10:31:12.082Z,1017.72
2018-06-24T10:32:12.061Z,1017.68
2018-06-24T10:33:12.042Z,1017.67
2018-06-24T10:34:12.018Z,1017.68
2018-06-24T10:35:11.997Z,1017.67
2018-06-24T10:36:11.975Z,1017.64
2018-06-24T10:37:11.953Z,1017.65
2018-06-24T10:38:11.930Z,1017.71
2018-06-24T10:39:11.909Z,1017.54
2018-06-24T10:40:11.888Z,1017.65
2018-06-24T10:41:11.941Z,1017.69
2018-06-24T10:42:11.848Z,1017.75
2018-06-24T10:43:11.827Z,1017.77
2018-06-24T10:44:11.800Z,1017.68
2018-06-24T10:45:11.777Z,1017.69
2018-06-24T10:46:11.757Z,1017.76
2018-06-24T10:47:11.732Z,1017.76
2018-06-24T10:48:11.712Z,1017.77
2018-06-24T10:49:11.692Z,1017.67
2018-06-24T10:50:11.668Z,1017.73
2018-06-24T10:51:11.644Z,1017.69
2018-06-24T10:52:11.621Z,1017.58
2018-06-24T10:53:11.600Z,1017.69
2018-06-24T10:54:11.579Z,1017.77
2018-06-24T10:55:11.559Z,1017.84
2018-06-24T10:56:11.529Z,1018.01
2018-06-24T10:57:11.508Z,1018.15
2018-06-24T10:58:11.486Z,1018.19
2018-06-24T10:59:11.461Z,1018.29
2018-06-24T11:00:11.441Z,1018.37
2018-06-24T11:01:11.418Z,1018.41
2018-06-24T11:02:11.422Z,1018.43
2018-06-24T11:03:11.374Z,1018.49
2018-06-24T11:04:11.351Z,1018.41
2018-06-24T11:05:11.330Z,1018.36
2018-06-24T11:06:11.307Z,1018.06
2018-06-24T11:07:11.288Z,1017.95
2018-06-24T11:08:11.265Z,1017.63
2018-06-24T11:09:11.245Z,1017.66
2018-06-24T11:10:11.230Z,1017.53
2018-06-24T11:11:11.203Z,1017.50
2018-06-24T11:12:11.205Z,1017.56
2018-06-24T11:13:11.164Z,1017.55
2018-06-24T11:14:11.146Z,1017.48
2018-06-24T11:15:11.131Z,1017.45
2018-06-24T11:16:11.098Z,1017.42
2018-06-24T11:17:11.084Z,1017.41
2018-06-24T11:18:11.053Z,1017.46
2018-06-24T11:19:11.031Z,1017.34
2018-06-24T11:20:11.012Z,1017.30
2018-06-24T11:21:10.997Z,1017.37
2018-06-24T11:22:10.972Z,1017.37
2018-06-24T11:23:10.943Z,1017.36
2018-06-24T11:24:10.922Z,1017.48
2018-06-24T11:25:10.898Z,1017.47
2018-06-24T11:26:10.879Z,1017.77
2018-06-24T11:27:10.857Z,1017.90
2018-06-24T11:28:10.828Z,1018.31
2018-06-24T11:29:10.811Z,1018.46
2018-06-24T11:30:10.782Z,1018.48
2018-06-24T11:31:10.759Z,1018.37
2018-06-24T11:32:10.740Z,1018.16
2018-06-24T11:33:10.716Z,1017.95
2018-06-24T11:34:10.694Z,1017.80
2018-06-24T11:35:10.673Z,1017.68
2018-06-24T11:36:10.648Z,1017.54
2018-06-24T11:37:10.628Z,1017.47
2018-06-24T11:38:10.606Z,1017.49
2018-06-24T11:39:10.583Z,1017.37
2018-06-24T11:40:10.564Z,1017.42
2018-06-24T11:41:10.543Z,1017.40
2018-06-24T11:42:10.520Z,1017.23
2018-06-24T11:43:10.499Z,1017.50
2018-06-24T11:44:10.476Z,1017.40
2018-06-24T11:45:10.453Z,1017.52
2018-06-24T11:46:10.430Z,1017.60
2018-06-24T11:47:10.408Z,1017.61
2018-06-24T11:48:10.388Z,1017.73
2018-06-24T11:49:10.367Z,1017.85
2018-06-24T11:50:10.343Z,1017.83
2018-06-24T11:51:10.319Z,1017.79
2018-06-24T11:52:10.296Z,1017.71
2018-06-24T11:53:10.274Z,1017.85
2018-06-24T11:54:10.248Z,1017.75
2018-06-24T11:55:10.228Z,1017.67
2018-06-24T11:56:10.205Z,1017.63
2018-06-24T11:57:10.185Z,1017.61
2018-06-24T11:58:10.160Z,1017.58
2018-06-24T11:59:10.138Z,1017.53
2018-06-24T12:00:10.118Z,1017.55
2018-06-24T12:01:10.096Z,1017.51
2018-06-24T12:02:10.073Z,1017.41
2018-06-24T12:03:10.052Z,1017.47
2018-06-24T12:04:10.059Z,1017.44
2018-06-24T12:05:10.006Z,1017.49